Terminal Aerodrome Forecast
Issued by NWS

Home | Current Version | Previous Version | Text Only | Print | Product List | Glossary On
Versions: 1 2 3 4 5 6 7 8 9 10 11 12 13 14 15 16 17 18
000
FTUS46 KLOX 101751
TAFSBA
TAF
KSBA 101751Z 1018/1118 VRB03KT 6SM BR SCT005
     FM102100 26010KT P6SM SCT015
     FM110300 VRB03KT P6SM SCT020 BKN100
     FM110800 VRB03KT 3SM BR VCSH BKN008 OVC012=

USA.gov is the U.S. government's official web portal to all federal, state and local government web resources and services.